Time;durP1;ratioP1;P1;durP2;ratioP2;P2;SDS_P1;SDS_P2;PMS_P1;PMS_P2;Temp;Humidity;BMP_temperature;BMP_pressure;BME280_temperature;BME280_humidity;BME280_pressure;Samples;Min_cycle;Max_cycle;Signal;HPM_P1;HPM_P2
2022/04/06 00:01:52;;;;;;;40.30;17.17;;;;;;;4.73;66.27;92084.31;5005057;28;20036;-91
2022/04/06 00:08:35;;;;;;;41.72;17.67;;;;;;;5.18;66.84;92141.63;4992170;28;20105;-90
2022/04/06 00:11:09;;;;;;;46.50;18.38;;;;;;;4.69;67.30;92072.88;4981246;28;20069;-90
2022/04/06 00:14:12;;;;;;;41.20;18.58;;;;;;;5.02;67.10;92130.44;5053887;28;20083;-90
2022/04/06 00:17:04;;;;;;;;;;;;;;;;;;;;;
2022/04/06 00:19:47;;;;;;;43.78;17.02;;;;;;;4.68;66.74;92078.31;5054391;28;20489;-90
2022/04/06 00:26:33;;;;;;;44.15;17.67;;;;;;;4.65;67.01;92071.84;5026211;28;20125;-90
2022/04/06 00:29:17;;;;;;;41.38;17.95;;;;;;;4.70;67.21;92073.66;5013959;28;20047;-90
2022/04/06 00:31:50;;;;;;;41.22;18.48;;;;;;;4.92;67.50;92104.53;5029418;28;20041;-90
2022/04/06 00:37:24;;;;;;;42.78;16.83;;;;;;;4.77;67.99;92092.31;5025597;28;20049;-90
2022/04/06 00:40:19;;;;;;;38.90;17.75;;;;;;;4.80;68.17;92097.00;5020867;28;20040;-91
2022/04/06 00:43:08;;;;;;;47.92;17.83;;;;;;;4.88;68.49;92121.63;5002958;28;20041;-90
2022/04/06 00:45:59;;;;;;;41.78;17.25;;;;;;;4.90;68.69;92122.16;5018793;28;20110;-90
2022/04/06 00:48:34;;;;;;;;;;;;;;;5.01;68.63;92139.28;5019370;28;20423;-90
2022/04/06 00:51:12;;;;;;;37.47;16.98;;;;;;;4.63;68.95;92086.88;5019715;28;19917;-90
2022/04/06 00:54:09;;;;;;;36.88;15.95;;;;;;;4.73;69.03;92102.44;5032799;28;20044;-91
2022/04/06 00:57:02;;;;;;;;;;;;;;;;;;;;;
2022/04/06 00:59:40;;;;;;;;;;;;;;;;;;;;;
2022/04/06 01:06:23;;;;;;;44.38;17.95;;;;;;;4.89;69.19;92126.56;5016797;28;20411;-91
2022/04/06 01:08:51;;;;;;;39.65;17.45;;;;;;;4.84;69.59;92126.56;5015068;28;20125;-90
2022/04/06 01:11:18;;;;;;;40.15;18.00;;;;;;;4.81;70.07;92132.25;4998975;28;20109;-90
2022/04/06 01:14:11;;;;;;;38.35;18.52;;;;;;;4.76;70.13;92133.03;5016210;28;20503;-90
2022/04/06 01:16:43;;;;;;;38.33;17.73;;;;;;;4.55;70.27;92110.75;5014860;28;20506;-90
2022/04/06 01:20:00;;;;;;;41.67;17.02;;;;;;;4.27;70.27;92073.88;5018308;28;20470;-90
2022/04/06 01:22:51;;;;;;;;;;;;;;;;;;;;;
2022/04/06 01:25:38;;;;;;;47.75;18.50;;;;;;;4.21;70.41;92064.56;5018381;28;20095;-90
2022/04/06 01:31:48;;;;;;;;;;;;;;;;;;;;;
2022/04/06 01:34:57;;;;;;;37.20;17.85;;;;;;;4.19;70.37;92071.81;5017928;28;20041;-90
2022/04/06 01:37:52;;;;;;;39.33;16.73;;;;;;;4.22;70.42;92071.28;5017573;28;20075;-91
2022/04/06 01:40:29;;;;;;;37.40;16.30;;;;;;;4.17;70.30;92066.09;5005470;28;20144;-90
2022/04/06 01:43:45;;;;;;;32.70;15.35;;;;;;;4.22;70.11;92073.88;5036366;28;20101;-90
2022/04/06 01:46:25;;;;;;;37.10;16.13;;;;;;;4.09;70.12;92051.06;4978993;28;20103;-90
2022/04/06 01:52:24;;;;;;;35.85;16.30;;;;;;;4.43;70.40;92105.00;5030074;28;20501;-90
2022/04/06 01:59:23;;;;;;;;;;;;;;;;;;;;;
2022/04/06 02:02:11;;;;;;;;;;;;;;;;;;;;;
2022/04/06 02:08:21;;;;;;;35.50;15.98;;;;;;;4.42;70.44;92087.91;5025600;28;20056;-90
2022/04/06 02:10:47;;;;;;;40.10;16.50;;;;;;;4.40;70.62;92087.38;5000977;28;20399;-90
2022/04/06 02:13:13;;;;;;;41.88;17.77;;;;;;;4.33;70.83;92070.28;4968472;28;20033;-90
2022/04/06 02:15:47;;;;;;;39.05;17.45;;;;;;;4.36;71.19;92074.16;4984387;28;20111;-90
2022/04/06 02:18:13;;;;;;;41.70;17.45;;;;;;;4.37;71.23;92079.09;4987247;28;20151;-90
2022/04/06 02:20:39;;;;;;;39.78;17.52;;;;;;;4.38;71.98;92077.28;5000991;28;20065;-90
2022/04/06 02:23:05;;;;;;;38.70;17.38;;;;;;;4.34;71.38;92077.00;5000473;28;20112;-90
2022/04/06 02:25:30;;;;;;;38.85;16.85;;;;;;;4.25;71.41;92063.00;5000382;28;20045;-91
2022/04/06 02:27:59;;;;;;;37.80;17.33;;;;;;;4.26;71.49;92061.22;4984417;28;20037;-90
2022/04/06 02:31:00;;;;;;;;;;;;;;;;;;;;;
2022/04/06 02:37:51;;;;;;;;;;;;;;;;;;;;;
2022/04/06 02:40:37;;;;;;;;;;;;;;;;;;;;;
2022/04/06 02:43:16;;;;;;;41.03;17.42;;;;;;;3.79;73.03;92000.75;5002446;28;20475;-90
2022/04/06 02:46:18;;;;;;;;;;;;;;;;;;;;;
2022/04/06 02:49:13;;;;;;;38.40;16.90;;;;;;;4.00;73.43;92037.06;5034031;28;20044;-90
2022/04/06 02:51:46;;;;;;;44.60;18.05;;;;;;;3.74;74.20;92000.75;4985317;28;20460;-91
2022/04/06 02:54:31;;;;;;;36.50;16.80;;;;;;;3.95;74.03;92036.00;5018479;28;20042;-90
2022/04/06 02:57:43;;;;;;;;;;;;;;;;;;;;;
2022/04/06 03:04:10;;;;;;;;;;;;;;;;;;;;;
2022/04/06 03:07:16;;;;;;;38.92;16.55;;;;;;;3.70;73.92;91997.13;5042418;28;20401;-91
2022/04/06 03:10:10;;;;;;;38.13;16.17;;;;;;;3.76;73.40;92011.66;5022369;28;20087;-91
2022/04/06 03:12:50;;;;;;;45.13;17.08;;;;;;;3.46;74.43;91963.91;5027126;28;20526;-91
2022/04/06 03:15:46;;;;;;;49.08;17.80;;;;;;;3.44;74.79;91968.56;5047047;28;20052;-91
2022/04/06 03:18:44;;;;;;;38.00;16.50;;;;;;;3.89;75.09;92031.06;5035977;28;20037;-90
2022/04/06 03:21:53;;;;;;;;;;;;;;;;;;;;;
2022/04/06 03:24:49;;;;;;;37.50;15.55;;;;;;;3.45;75.44;91979.72;5036047;28;20120;-90
2022/04/06 03:27:48;;;;;;;37.38;16.42;;;;;;;3.43;75.51;91977.38;5035719;28;20041;-90
2022/04/06 03:30:45;;;;;;;33.90;15.80;;;;;;;3.27;75.60;91955.84;5036154;28;20069;-90
2022/04/06 03:33:41;;;;;;;;;;;;;;;;;;;;;
2022/04/06 03:36:19;;;;;;;33.90;15.93;;;;;;;3.50;74.56;91993.44;5035827;28;20055;-90
2022/04/06 03:39:15;;;;;;;33.78;15.15;;;;;;;3.22;74.46;91957.63;5025408;28;20083;-91
2022/04/06 03:44:44;;;;;;;;;;;;;;;;;;;;;
2022/04/06 03:47:27;;;;;;;34.60;14.85;;;;;;;3.15;74.89;91960.44;5065435;28;20139;-88
2022/04/06 03:50:25;;;;;;;32.23;14.63;;;;;;;3.55;75.56;92027.09;5029527;28;20028;-88
2022/04/06 03:52:58;;;;;;;30.23;13.52;;;;;;;3.05;75.69;91958.63;5022976;28;20323;-88
2022/04/06 03:56:19;;;;;;;33.85;15.13;;;;;;;3.29;75.52;91997.00;5052379;28;20051;-87
2022/04/06 04:01:48;;;;;;;27.98;13.02;;;;;;;2.94;74.67;91959.59;5016220;28;20079;-89
2022/04/06 04:04:35;;;;;;;;;;;;;;;;;;;;;
2022/04/06 04:07:37;;;;;;;;;;;;;;;;;;;;;
2022/04/06 04:10:24;;;;;;;;;;;;;;;;;;;;;
2022/04/06 04:13:16;;;;;;;32.63;14.05;;;;;;;2.82;76.13;91951.28;5043664;28;20389;-88
2022/04/06 04:16:06;;;;;;;30.25;14.50;;;;;;;2.77;76.16;91943.47;5056012;28;20025;-88
2022/04/06 04:19:07;;;;;;;;;;;;;;;;;;;;;
2022/04/06 04:21:51;;;;;;;;;;;;;;;;;;;;;
2022/04/06 04:24:18;;;;;;;31.42;13.77;;;;;;;3.01;76.27;91988.59;5003374;28;20049;-88
2022/04/06 04:26:51;;;;;;;32.25;14.07;;;;;;;2.68;76.19;91940.63;5001846;28;20033;-88
2022/04/06 04:29:42;;;;;;;27.40;12.93;;;;;;;2.86;76.75;91978.97;5003575;28;20073;-88
2022/04/06 04:32:25;;;;;;;31.70;13.95;;;;;;;2.69;77.00;91950.69;5003320;28;20042;-88
2022/04/06 04:35:01;;;;;;;37.42;15.18;;;;;;;2.87;76.78;91977.16;5002205;28;20061;-89
2022/04/06 04:37:38;;;;;;;32.47;14.98;;;;;;;2.92;76.77;91988.28;5017724;28;20041;-88
2022/04/06 04:40:19;;;;;;;32.70;14.80;;;;;;;2.93;77.16;91994.25;5018255;28;20127;-89
2022/04/06 04:42:55;;;;;;;39.95;17.40;;;;;;;3.08;76.92;92022.75;5017910;28;20512;-88
2022/04/06 04:45:50;;;;;;;;;;;;;;;;;;;;;
2022/04/06 04:48:45;;;;;;;;;;;;;;;;;;;;;
2022/04/06 04:51:19;;;;;;;46.28;19.83;;;;;;;2.58;77.04;91951.66;5003024;28;20136;-88
2022/04/06 04:54:04;;;;;;;43.05;19.95;;;;;;;2.73;76.90;91984.56;5001901;28;20491;-89
2022/04/06 04:56:41;;;;;;;46.88;22.00;;;;;;;2.79;77.82;91987.94;5017645;28;20037;-88
2022/04/06 04:59:12;;;;;;;56.97;25.35;;;;;;;2.63;78.62;91977.53;5017998;28;20033;-88
2022/04/06 05:02:09;;;;;;;62.28;29.50;;;;;;;2.66;79.95;91969.28;5040022;28;20630;-87
2022/04/06 05:04:48;;;;;;;59.90;27.40;;;;;;;3.09;80.59;92013.97;5005212;28;20053;-87
2022/04/06 05:07:33;;;;;;;64.72;26.80;;;;;;;2.79;80.90;91956.94;5033630;28;20100;-87
2022/04/06 05:10:04;;;;;;;59.72;27.88;;;;;;;3.11;80.53;92006.75;5032049;28;20095;-88
2022/04/06 05:12:48;;;;;;;;;;;;;;;;;;;;;
2022/04/06 05:15:24;;;;;;;63.63;28.05;;;;;;;2.95;79.41;91970.72;5005683;28;20034;-89
2022/04/06 05:18:01;;;;;;;65.93;29.30;;;;;;;2.90;79.91;91959.34;5014291;28;20045;-88
2022/04/06 05:20:38;;;;;;;72.43;32.72;;;;;;;3.18;80.09;91995.41;4998468;28;20029;-87
2022/04/06 05:23:18;;;;;;;82.13;33.67;;;;;;;3.30;79.79;91998.53;5033655;28;20056;-86
2022/04/06 05:26:00;;;;;;;79.85;33.58;;;;;;;3.54;80.73;92033.31;5002482;28;20045;-86
2022/04/06 05:28:29;;;;;;;77.30;33.05;;;;;;;3.48;79.81;92010.25;5016851;28;20075;-86
2022/04/06 05:30:58;;;;;;;79.00;32.50;;;;;;;3.52;79.76;92006.91;5034011;28;20553;-86
2022/04/06 05:33:26;;;;;;;74.18;32.88;;;;;;;3.60;80.08;91991.91;5016628;28;20033;-86
2022/04/06 05:35:54;;;;;;;77.78;32.85;;;;;;;3.59;79.76;91969.66;5011941;28;20099;-86
2022/04/06 05:38:19;;;;;;;74.15;33.00;;;;;;;4.18;79.62;92033.97;5015930;28;20037;-87
2022/04/06 05:40:45;;;;;;;72.40;31.40;;;;;;;4.09;79.02;92007.78;5033606;28;20069;-86
2022/04/06 05:43:15;;;;;;;73.07;32.47;;;;;;;4.13;78.34;91979.56;4998579;28;20038;-86
2022/04/06 05:45:46;;;;;;;68.47;31.42;;;;;;;4.58;78.11;92022.06;5000431;28;20037;-87
2022/04/06 05:48:14;;;;;;;71.43;30.90;;;;;;;4.77;77.07;92025.69;5017483;28;20041;-86
2022/04/06 05:50:43;;;;;;;64.43;29.60;;;;;;;4.96;76.53;92020.72;5016129;28;20033;-86
2022/04/06 05:53:09;;;;;;;69.93;30.85;;;;;;;5.15;75.69;92020.94;5027148;28;20038;-87
2022/04/06 05:55:35;;;;;;;74.63;31.40;;;;;;;5.55;74.41;92047.03;5016267;28;20047;-86
2022/04/06 05:58:06;;;;;;;69.13;31.27;;;;;;;5.46;73.76;92015.66;5016868;28;20037;-86
2022/04/06 06:00:36;;;;;;;68.40;31.67;;;;;;;5.45;73.28;91980.38;5009886;28;20063;-88
2022/04/06 06:03:07;;;;;;;67.35;31.42;;;;;;;6.02;72.13;92028.41;5032810;28;20068;-86
2022/04/06 06:05:37;;;;;;;64.78;29.90;;;;;;;6.02;71.58;91997.22;5020234;28;20053;-86
2022/04/06 06:08:04;;;;;;;63.58;30.27;;;;;;;6.21;70.90;91999.97;4999954;28;20052;-86
2022/04/06 06:10:30;;;;;;;56.40;27.15;;;;;;;7.53;66.29;92043.28;5015628;28;20029;-87
2022/04/06 06:13:00;;;;;;;58.92;25.00;;;;;;;9.98;59.13;92037.94;4996418;28;20545;-86
2022/04/06 06:15:29;;;;;;;60.00;26.70;;;;;;;11.93;52.54;92020.25;4996418;28;20132;-89
2022/04/06 06:17:58;;;;;;;56.40;25.20;;;;;;;12.62;48.61;91980.94;5015340;28;20060;-86
2022/04/06 06:20:27;;;;;;;51.03;24.40;;;;;;;14.02;45.52;91980.50;5033050;28;20026;-86
2022/04/06 06:22:53;;;;;;;51.53;24.75;;;;;;;14.87;43.23;91995.22;5016266;28;20037;-86
2022/04/06 06:25:19;;;;;;;48.75;24.38;;;;;;;15.74;39.89;91986.44;5016067;28;20044;-87
2022/04/06 06:27:46;;;;;;;45.92;22.95;;;;;;;15.83;40.18;91987.09;4999132;28;20124;-86
2022/04/06 06:30:13;;;;;;;47.70;23.80;;;;;;;16.06;39.56;92003.25;5015807;28;20731;-86
2022/04/06 06:32:42;;;;;;;49.97;22.83;;;;;;;16.07;39.08;92010.06;5033318;28;20038;-86
2022/04/06 06:35:09;;;;;;;46.25;22.60;;;;;;;15.67;39.54;92033.66;4995482;28;20467;-86
2022/04/06 06:37:47;;;;;;;47.00;22.20;;;;;;;15.28;40.62;92022.59;5012815;28;20663;-88
2022/04/06 06:40:13;;;;;;;45.47;21.40;;;;;;;16.63;38.25;92017.34;4979971;28;20045;-87
2022/04/06 06:42:40;;;;;;;51.17;22.33;;;;;;;16.70;37.64;92035.28;4995804;28;20046;-87
2022/04/06 06:45:11;;;;;;;47.03;22.23;;;;;;;17.65;35.40;92012.53;4963809;28;20136;-88
2022/04/06 06:47:40;;;;;;;65.45;30.25;;;;;;;17.06;35.43;92000.81;5012098;28;20551;-87
2022/04/06 06:50:12;;;;;;;59.13;29.17;;;;;;;17.33;36.50;92048.72;5011851;28;20417;-88
2022/04/06 06:52:42;;;;;;;63.78;28.33;;;;;;;16.47;37.64;92027.84;4996092;28;20042;-86
2022/04/06 06:55:17;;;;;;;58.05;25.27;;;;;;;16.72;36.74;91991.56;4979719;28;20052;-86
2022/04/06 06:57:43;;;;;;;54.47;27.45;;;;;;;18.38;34.48;92028.22;5012464;28;20056;-88
2022/04/06 07:00:16;;;;;;;58.80;26.20;;;;;;;17.08;36.50;91989.13;4995629;28;20111;-87
2022/04/06 07:02:44;;;;;;;49.95;25.48;;;;;;;17.62;35.53;91992.00;5012994;28;20041;-87
2022/04/06 07:05:22;;;;;;;53.53;26.33;;;;;;;17.24;36.71;92043.59;5007189;28;20055;-87
2022/04/06 07:08:00;;;;;;;53.83;26.48;;;;;;;17.63;34.98;91990.91;5031096;28;20105;-86
2022/04/06 07:10:37;;;;;;;60.35;26.77;;;;;;;18.42;34.19;91987.44;5031918;28;20497;-88
2022/04/06 07:13:08;;;;;;;57.97;26.38;;;;;;;16.87;36.26;91976.88;5014410;28;20037;-86
2022/04/06 07:15:33;;;;;;;60.72;27.50;;;;;;;14.94;40.76;91998.09;5015156;28;20041;-87
2022/04/06 07:18:09;;;;;;;;;;;;;;;;;;;;;
2022/04/06 07:20:37;;;;;;;58.38;25.95;;;;;;;12.53;46.92;92035.31;5033146;28;20041;-86
2022/04/06 07:23:06;;;;;;;58.70;26.50;;;;;;;10.97;51.19;92033.69;5032379;28;20041;-86
2022/04/06 07:25:33;;;;;;;57.33;27.60;;;;;;;11.34;51.38;92047.44;4999289;28;20069;-86
2022/04/06 07:27:59;;;;;;;67.97;28.90;;;;;;;11.38;50.53;92043.16;5015442;28;20124;-86
2022/04/06 07:30:25;;;;;;;68.70;29.42;;;;;;;11.32;51.10;92040.97;5015425;28;20519;-86
2022/04/06 07:32:51;;;;;;;79.53;28.55;;;;;;;10.71;52.50;92032.75;5015657;28;20547;-86
2022/04/06 07:35:17;;;;;;;54.15;25.38;;;;;;;10.53;53.71;92040.44;5032791;28;20068;-86
2022/04/06 07:37:47;;;;;;;66.40;27.88;;;;;;;10.18;55.02;92040.13;5031843;28;20061;-86
2022/04/06 07:40:15;;;;;;;57.97;25.95;;;;;;;10.69;53.92;91995.63;4995923;28;20096;-86
2022/04/06 07:42:41;;;;;;;61.30;26.13;;;;;;;10.82;53.46;92013.09;4979662;28;20081;-86
2022/04/06 07:45:09;;;;;;;65.30;27.55;;;;;;;11.33;52.10;92030.19;4995016;28;20034;-86
2022/04/06 07:47:37;;;;;;;58.72;27.65;;;;;;;11.28;52.31;92038.19;5014424;28;20034;-87
2022/04/06 07:50:04;;;;;;;51.33;22.08;;;;;;;10.14;54.01;92013.03;5029226;28;20029;-86
2022/04/06 07:52:31;;;;;;;65.90;28.90;;;;;;;10.54;54.72;92038.63;5036479;28;20064;-89
2022/04/06 07:54:57;;;;;;;62.80;28.80;;;;;;;10.55;54.14;92030.47;5019388;28;20032;-86
2022/04/06 07:57:24;;;;;;;75.50;31.38;;;;;;;10.52;55.09;92036.31;5019101;28;20037;-87
2022/04/06 07:59:51;;;;;;;79.57;31.88;;;;;;;10.61;54.40;92034.53;5034846;28;20030;-86
2022/04/06 08:02:17;;;;;;;80.72;33.58;;;;;;;10.38;55.04;92035.56;5036470;28;20048;-87
2022/04/06 08:04:42;;;;;;;81.20;34.03;;;;;;;10.94;53.63;92005.50;5002407;28;20057;-86
2022/04/06 08:07:08;;;;;;;70.70;29.92;;;;;;;11.13;53.89;92033.31;5018646;28;20135;-87
2022/04/06 08:09:34;;;;;;;84.47;34.33;;;;;;;11.18;53.14;92009.63;5001914;28;20525;-86
2022/04/06 08:12:01;;;;;;;75.68;32.30;;;;;;;12.05;51.83;92010.72;5001754;28;20033;-86
2022/04/06 08:14:27;;;;;;;103.93;35.15;;;;;;;10.65;53.37;92031.28;5018713;28;20037;-87
2022/04/06 08:16:55;;;;;;;81.68;33.05;;;;;;;10.81;53.96;92020.19;5018539;28;20048;-86
2022/04/06 08:19:22;;;;;;;77.70;32.55;;;;;;;11.53;52.79;92015.78;5018998;28;20059;-86
2022/04/06 08:21:49;;;;;;;86.38;32.00;;;;;;;10.81;53.73;92022.03;5036254;28;20033;-86
2022/04/06 08:24:15;;;;;;;79.13;32.25;;;;;;;11.49;52.89;92006.22;5002731;28;20046;-86
2022/04/06 08:26:40;;;;;;;77.40;30.13;;;;;;;11.38;53.34;92019.56;5035499;28;20048;-87
2022/04/06 08:29:06;;;;;;;85.55;32.53;;;;;;;10.95;54.67;92021.97;5001843;28;20069;-87
2022/04/06 08:31:32;;;;;;;73.35;31.20;;;;;;;11.16;53.97;92004.66;5017993;28;20044;-88
2022/04/06 08:33:58;;;;;;;74.70;32.95;;;;;;;10.20;56.26;92019.69;4985712;28;20033;-86
2022/04/06 08:36:23;;;;;;;73.40;31.67;;;;;;;11.02;55.64;92027.56;5002151;28;20064;-87
2022/04/06 08:38:49;;;;;;;84.43;36.55;;;;;;;11.02;53.56;92004.75;5002135;28;20494;-86
2022/04/06 08:41:18;;;;;;;75.85;30.98;;;;;;;10.72;54.68;92023.84;5001999;28;20064;-87
2022/04/06 08:43:44;;;;;;;83.28;34.78;;;;;;;10.91;54.39;92029.63;5018580;28;20045;-86
2022/04/06 08:46:11;;;;;;;63.05;25.70;;;;;;;10.67;54.77;92037.00;5018239;28;20046;-86
2022/04/06 08:48:38;;;;;;;85.13;36.85;;;;;;;11.08;55.25;92020.31;5001817;28;20040;-86
2022/04/06 08:51:07;;;;;;;86.93;35.30;;;;;;;11.32;54.46;92020.00;5002170;28;20034;-86
2022/04/06 08:53:34;;;;;;;90.00;36.30;;;;;;;10.40;56.30;92026.38;5018380;28;20041;-86
2022/04/06 08:55:59;;;;;;;98.05;39.55;;;;;;;10.62;56.03;92025.59;5018458;28;20495;-86
2022/04/06 08:58:25;;;;;;;88.47;37.25;;;;;;;10.54;57.82;92022.94;5034968;28;20046;-86
2022/04/06 09:00:51;;;;;;;86.88;37.53;;;;;;;10.63;56.59;91998.34;5020553;28;20179;-86
2022/04/06 09:03:16;;;;;;;88.47;37.55;;;;;;;10.69;56.17;91993.00;5037109;28;20119;-86
2022/04/06 09:05:42;;;;;;;95.95;40.45;;;;;;;10.87;56.00;92020.81;5015966;28;20570;-86
2022/04/06 09:08:08;;;;;;;81.72;35.38;;;;;;;10.80;56.59;92020.47;5037020;28;20052;-85
2022/04/06 09:10:36;;;;;;;84.65;36.45;;;;;;;11.21;55.50;92017.66;5001620;28;20026;-86
2022/04/06 09:13:14;;;;;;;87.63;36.15;;;;;;;10.70;56.37;92021.50;5018071;28;20041;-87
2022/04/06 09:15:41;;;;;;;102.05;40.85;;;;;;;10.79;55.41;92019.72;5011326;28;20135;-86
2022/04/06 09:18:07;;;;;;;75.40;33.25;;;;;;;10.97;55.25;92015.34;5014109;28;20065;-86
2022/04/06 09:20:33;;;;;;;92.63;39.05;;;;;;;11.00;56.01;92011.34;5030953;28;20046;-87
2022/04/06 09:23:01;;;;;;;92.50;37.53;;;;;;;11.36;54.75;92018.31;5014090;28;20430;-88
2022/04/06 09:25:35;;;;;;;98.57;38.65;;;;;;;11.20;55.13;92023.19;4997986;28;20113;-87
2022/04/06 09:28:14;;;;;;;102.05;41.35;;;;;;;11.50;55.10;92020.84;4997902;28;20046;-86
2022/04/06 09:30:47;;;;;;;137.52;39.08;;;;;;;11.11;54.12;92030.22;4982080;28;20045;-87
2022/04/06 09:33:18;;;;;;;;;;;;;;;11.48;54.63;92020.38;4998566;28;20114;-86
2022/04/06 09:35:44;;;;;;;84.38;36.75;;;;;;;11.58;52.18;92007.78;5034394;28;19920;-86
2022/04/06 09:38:11;;;;;;;148.95;38.25;;;;;;;11.03;53.68;92021.22;4983543;28;20025;-86
2022/04/06 09:40:37;;;;;;;94.20;37.30;;;;;;;11.15;55.45;92033.78;5016962;28;20479;-86
2022/04/06 09:43:04;;;;;;;87.57;36.90;;;;;;;11.60;53.63;92017.97;5016955;28;20048;-86
2022/04/06 09:48:14;;;;;;;82.15;33.25;;;;;;;11.64;53.48;91997.91;5002414;28;20045;-87
2022/04/06 09:50:42;;;;;;;86.55;35.78;;;;;;;11.69;54.22;92015.38;5000249;28;20036;-87
2022/04/06 09:53:09;;;;;;;83.60;37.88;;;;;;;12.01;52.41;92009.00;5034484;28;20073;-86
2022/04/06 09:55:35;;;;;;;72.82;31.65;;;;;;;11.96;52.91;92017.03;5000217;28;20033;-86
2022/04/06 09:58:03;;;;;;;84.40;36.05;;;;;;;12.46;51.22;92014.75;5000215;28;20494;-86
2022/04/06 10:00:30;;;;;;;85.40;37.45;;;;;;;11.76;52.27;91956.16;5000088;28;20103;-86
2022/04/06 10:03:07;;;;;;;86.85;37.13;;;;;;;11.57;53.41;92006.25;5034213;28;20524;-86
2022/04/06 10:05:38;;;;;;;83.05;36.72;;;;;;;11.90;52.35;92000.66;5033936;28;20041;-86
2022/04/06 10:08:05;;;;;;;84.47;37.35;;;;;;;12.02;52.65;92010.53;5016106;28;20079;-86
2022/04/06 10:10:38;;;;;;;74.85;35.10;;;;;;;12.45;51.78;91986.97;4999453;28;20030;-88
2022/04/06 10:13:04;;;;;;;76.90;35.70;;;;;;;13.07;51.08;91996.31;4999908;28;20430;-86
2022/04/06 10:15:30;;;;;;;87.65;37.45;;;;;;;13.01;47.63;91996.78;4983604;28;20069;-86
2022/04/06 10:17:56;;;;;;;80.22;34.67;;;;;;;12.56;50.30;91984.78;5016460;28;20034;-87
2022/04/06 10:20:29;;;;;;;70.75;32.00;;;;;;;12.52;47.99;91990.97;4983665;28;20041;-87
2022/04/06 10:23:12;;;;;;;71.00;33.45;;;;;;;12.77;50.18;91987.56;5033731;28;20029;-87
2022/04/06 10:26:05;;;;;;;82.30;36.50;;;;;;;12.57;51.94;91982.97;5016315;28;20128;-86
2022/04/06 10:28:35;;;;;;;82.53;36.35;;;;;;;12.56;51.23;91955.91;5016411;28;20026;-86
2022/04/06 10:31:24;;;;;;;82.80;36.42;;;;;;;12.98;50.68;91963.28;4999922;28;20099;-86
2022/04/06 10:34:11;;;;;;;72.88;32.67;;;;;;;13.29;49.01;91974.34;5033211;28;20032;-86
2022/04/06 10:36:41;;;;;;;70.25;31.55;;;;;;;12.83;50.57;91959.28;5015818;28;20037;-86
2022/04/06 10:39:07;;;;;;;80.70;34.63;;;;;;;12.86;50.18;91962.06;5015713;28;20033;-87
2022/04/06 10:42:10;;;;;;;76.57;33.67;;;;;;;12.97;48.94;91959.09;5015410;28;20486;-86
2022/04/06 10:44:37;;;;;;;69.55;33.83;;;;;;;12.45;49.97;91949.44;4997471;28;20176;-87
2022/04/06 10:47:10;;;;;;;63.92;30.45;;;;;;;12.58;50.56;91961.63;5015073;28;20045;-87
2022/04/06 10:49:36;;;;;;;77.57;34.90;;;;;;;12.47;51.16;91944.66;5032922;28;20126;-87
2022/04/06 10:52:23;;;;;;;71.18;35.08;;;;;;;12.22;51.94;91928.59;4999549;28;20487;-86
2022/04/06 10:54:50;;;;;;;82.55;37.47;;;;;;;12.94;51.39;91949.97;5030554;28;20029;-87
2022/04/06 10:57:15;;;;;;;79.53;33.75;;;;;;;13.11;50.27;91939.44;5033061;28;20052;-87
2022/04/06 10:59:41;;;;;;;71.47;34.50;;;;;;;12.95;49.38;91935.78;4983455;28;20494;-86
2022/04/06 11:02:26;;;;;;;69.15;33.58;;;;;;;12.97;49.84;91936.25;4999045;28;20038;-87
2022/04/06 11:04:52;;;;;;;78.07;34.38;;;;;;;12.17;51.54;91928.75;5024787;28;20482;-86
2022/04/06 11:10:06;;;;;;;68.60;33.08;;;;;;;12.18;51.96;91932.94;5018946;28;20375;-86
2022/04/06 11:10:15;;;;;;;66.88;31.15;;;;;;;12.22;50.50;91933.84;5038288;28;20142;-86
2022/04/06 11:13:03;;;;;;;78.13;32.90;;;;;;;12.62;50.80;91917.91;5033127;28;20044;-86
2022/04/06 11:15:40;;;;;;;71.95;32.97;;;;;;;13.06;49.27;91920.41;5048966;28;20083;-86
2022/04/06 11:18:49;;;;;;;65.90;30.95;;;;;;;13.10;49.57;91937.09;5033485;28;20041;-87
2022/04/06 11:21:15;;;;;;;64.10;29.25;;;;;;;12.98;49.07;91911.50;5013433;28;20486;-87
2022/04/06 11:23:42;;;;;;;71.05;31.85;;;;;;;13.00;48.73;91922.47;5014312;28;20087;-89
2022/04/06 11:26:07;;;;;;;68.57;29.52;;;;;;;13.05;49.06;91919.66;5042020;28;20032;-87
2022/04/06 11:28:33;;;;;;;63.47;31.92;;;;;;;12.70;48.96;91916.38;5001083;28;20041;-86
2022/04/06 11:31:03;;;;;;;70.15;33.47;;;;;;;12.75;49.22;91897.06;5001311;28;20029;-87
2022/04/06 11:33:39;;;;;;;64.00;30.92;;;;;;;12.77;49.98;91892.25;5017332;28;20029;-88
2022/04/06 11:36:12;;;;;;;63.67;30.13;;;;;;;13.23;48.85;91903.84;5015855;28;20108;-87
2022/04/06 11:38:38;;;;;;;57.60;27.38;;;;;;;13.12;48.64;91898.91;5034177;28;20037;-86
2022/04/06 11:41:03;;;;;;;63.22;30.13;;;;;;;12.91;49.70;91893.59;5034087;28;20037;-86
2022/04/06 11:43:29;;;;;;;57.53;28.88;;;;;;;13.03;49.48;91892.94;5033521;28;20040;-86
2022/04/06 11:45:57;;;;;;;73.60;33.63;;;;;;;12.92;49.28;91873.34;5050229;28;20041;-86
2022/04/06 11:48:23;;;;;;;64.07;29.90;;;;;;;12.59;49.81;91870.53;5034013;28;20037;-87
2022/04/06 11:50:49;;;;;;;65.25;30.75;;;;;;;12.80;49.07;91871.38;5016805;28;20420;-88
2022/04/06 11:53:18;;;;;;;69.03;33.55;;;;;;;12.67;49.66;91873.09;5017593;28;20492;-87
2022/04/06 11:55:47;;;;;;;65.82;30.65;;;;;;;13.13;48.95;91887.34;5051476;28;20025;-87
2022/04/06 11:58:37;;;;;;;73.10;32.33;;;;;;;12.93;48.91;91868.88;5031448;28;20033;-87
2022/04/06 12:01:08;;;;;;;68.90;30.88;;;;;;;12.25;50.51;91888.66;5026489;28;20060;-87
2022/04/06 12:03:36;;;;;;;64.95;30.63;;;;;;;11.92;51.58;91848.22;5031494;28;20441;-87
2022/04/06 12:06:03;;;;;;;64.70;29.45;;;;;;;12.23;50.50;91858.56;5030858;28;20041;-87
2022/04/06 12:08:32;;;;;;;66.60;29.92;;;;;;;12.54;50.99;91871.47;5010827;28;20037;-86
2022/04/06 12:10:59;;;;;;;60.92;27.88;;;;;;;12.78;50.73;91870.16;5016582;28;20037;-87
2022/04/06 12:13:30;;;;;;;70.43;33.08;;;;;;;12.20;50.27;91869.66;5017055;28;20037;-90
2022/04/06 12:15:56;;;;;;;63.70;30.58;;;;;;;12.49;50.98;91858.50;5051390;28;20036;-87
2022/04/06 12:18:24;;;;;;;61.42;30.60;;;;;;;12.76;50.80;91864.44;5002690;28;20048;-87
2022/04/06 12:20:51;;;;;;;59.38;28.38;;;;;;;12.84;50.41;91846.03;5030941;28;20033;-89
2022/04/06 12:23:18;;;;;;;65.70;32.08;;;;;;;12.79;49.54;91858.56;5031170;28;20141;-87
2022/04/06 12:25:45;;;;;;;59.90;28.63;;;;;;;13.08;50.34;91847.31;4996443;28;20037;-87
2022/04/06 12:28:21;;;;;;;44.97;24.60;;;;;;;12.28;49.63;91863.63;5012828;28;20501;-88
2022/04/06 12:30:56;;;;;;;52.78;27.58;;;;;;;12.52;51.39;91865.75;5030759;28;20112;-87
2022/04/06 12:33:38;;;;;;;64.00;30.88;;;;;;;12.52;49.96;91836.88;5015313;28;20030;-86
2022/04/06 12:36:08;;;;;;;;;;;;;;;12.78;49.95;91841.25;5017337;28;20033;-86
2022/04/06 12:38:35;;;;;;;55.05;28.00;;;;;;;12.71;50.66;91839.13;5016385;28;19909;-88
2022/04/06 12:41:07;;;;;;;57.38;28.27;;;;;;;13.22;49.02;91833.97;5000910;28;20112;-86
2022/04/06 12:43:36;;;;;;;53.22;26.08;;;;;;;12.96;49.01;91821.72;5016792;28;20087;-87
2022/04/06 12:46:01;;;;;;;68.80;31.73;;;;;;;13.04;49.29;91802.53;5016021;28;20534;-87
2022/04/06 12:48:28;;;;;;;55.90;28.23;;;;;;;13.16;49.36;91820.22;4999753;28;20133;-87
2022/04/06 12:50:53;;;;;;;62.88;30.10;;;;;;;12.90;49.14;91794.06;4999474;28;20064;-90
2022/04/06 12:53:20;;;;;;;62.92;29.42;;;;;;;13.22;49.66;91828.72;5034098;28;20060;-87
2022/04/06 12:55:46;;;;;;;56.75;29.13;;;;;;;13.46;48.43;91812.34;5016510;28;20037;-87
2022/04/06 12:58:17;;;;;;;53.05;27.52;;;;;;;12.92;49.67;91805.03;5000022;28;20075;-87
2022/04/06 13:00:43;;;;;;;60.47;29.67;;;;;;;12.53;50.22;91785.91;5022057;28;20048;-86
2022/04/06 13:03:08;;;;;;;62.05;28.60;;;;;;;12.76;49.88;91781.16;4998390;28;20183;-88
2022/04/06 13:05:34;;;;;;;55.25;25.55;;;;;;;12.18;51.09;91801.75;5022108;28;20830;-89
2022/04/06 13:08:02;;;;;;;61.58;31.67;;;;;;;12.71;49.83;91795.25;5018525;28;20036;-88
2022/04/06 13:10:34;;;;;;;61.35;30.48;;;;;;;12.81;50.46;91795.97;5027852;28;20041;-86
2022/04/06 13:13:01;;;;;;;61.17;27.65;;;;;;;12.80;49.11;91779.47;5020113;28;20570;-87
2022/04/06 13:15:27;;;;;;;58.90;26.88;;;;;;;12.84;49.86;91793.50;5035388;28;20040;-88
2022/04/06 13:17:53;;;;;;;59.97;28.52;;;;;;;12.90;49.47;91775.69;5019927;28;20099;-87